Time;durP1;ratioP1;P1;durP2;ratioP2;P2;SDS_P1;SDS_P2;PMS_P1;PMS_P2;Temp;Humidity;BMP_temperature;BMP_pressure;BME280_temperature;BME280_humidity;BME280_pressure;Samples;Min_cycle;Max_cycle;Signal;HPM_P1;HPM_P2
2022/10/24 00:02:37;;;;;;;;;;;16.70;99.90;;;;;;8401169;28;19992;-80
2022/10/24 00:06:39;;;;;;;;;;;16.70;99.90;;;;;;8383279;28;20225;-80
2022/10/24 00:10:45;;;;;;;;;;;16.70;99.90;;;;;;8383076;28;19924;-81
2022/10/24 00:14:47;;;;;;;;;;;16.70;99.90;;;;;;8383066;28;19925;-80
2022/10/24 00:18:49;;;;;;;;;;;16.70;99.90;;;;;;8382254;28;20391;-80
2022/10/24 00:22:50;;;;;;;;;;;16.70;99.90;;;;;;8382285;28;20451;-80
2022/10/24 00:26:52;;;;;;;;;;;16.70;99.90;;;;;;8382461;28;20016;-80
2022/10/24 00:36:03;;;;;;;;;;;16.60;99.90;;;;;;8399937;28;19963;-80
2022/10/24 00:45:27;;;;;;;;;;;16.50;99.90;;;;;;8399206;28;19922;-79
2022/10/24 00:49:48;;;;;;;;;;;16.60;99.90;;;;;;8381592;28;19928;-80
2022/10/24 00:53:52;;;;;;;;;;;16.50;99.90;;;;;;8399529;28;20312;-80
2022/10/24 00:57:55;;;;;;;;;;;16.50;99.90;;;;;;8381302;28;19936;-80
2022/10/24 01:01:57;;;;;;;;;;;16.60;99.90;;;;;;8381579;28;19924;-79
2022/10/24 01:06:11;;;;;;;;;;;16.60;99.90;;;;;;8380892;28;20011;-80
2022/10/24 01:10:25;;;;;;;;;;;16.60;99.90;;;;;;8393039;28;19984;-80
2022/10/24 01:14:34;;;;;;;;;;;16.70;99.90;;;;;;8398053;28;19925;-80
2022/10/24 01:18:36;;;;;;;;;;;16.70;99.90;;;;;;8397974;28;19929;-80
2022/10/24 01:23:13;;;;;;;;;;;16.70;99.90;;;;;;8380613;28;19970;-80
2022/10/24 01:27:32;;;;;;;;;;;16.70;99.90;;;;;;8271150;28;19928;-80
2022/10/24 01:31:40;;;;;;;;;;;16.80;99.90;;;;;;8380647;28;19925;-80
2022/10/24 01:36:07;;;;;;;;;;;16.80;99.90;;;;;;8380459;28;19964;-80
2022/10/24 01:40:12;;;;;;;;;;;16.80;99.90;;;;;;8377118;28;19936;-81
2022/10/24 01:44:23;;;;;;;;;;;16.80;99.90;;;;;;8397416;28;20018;-80
2022/10/24 01:48:25;;;;;;;;;;;16.80;99.90;;;;;;8396429;28;20023;-80
2022/10/24 01:52:28;;;;;;;;;;;16.80;99.90;;;;;;8379974;28;20018;-80
2022/10/24 01:56:30;;;;;;;;;;;16.80;99.90;;;;;;8385794;28;20019;-80
2022/10/24 02:00:32;;;;;;;;;;;16.80;99.90;;;;;;8380136;28;19963;-80
2022/10/24 02:04:36;;;;;;;;;;;16.80;99.90;;;;;;8396844;28;20390;-80
2022/10/24 02:08:40;;;;;;;;;;;16.80;99.90;;;;;;8378967;28;19982;-80
2022/10/24 02:12:44;;;;;;;;;;;16.90;99.90;;;;;;8398161;28;19925;-80
2022/10/24 02:16:46;;;;;;;;;;;16.80;99.90;;;;;;8379118;28;20328;-79
2022/10/24 02:20:51;;;;;;;;;;;16.80;99.90;;;;;;8378445;28;19924;-79
2022/10/24 02:25:01;;;;;;;;;;;16.80;99.90;;;;;;8377968;28;20016;-80
2022/10/24 02:29:09;;;;;;;;;;;16.80;99.90;;;;;;8378058;28;19925;-80
2022/10/24 02:33:12;;;;;;;;;;;16.80;99.90;;;;;;8378710;28;19932;-80
2022/10/24 02:37:14;;;;;;;;;;;16.70;99.90;;;;;;8378472;28;20019;-80
2022/10/24 02:41:23;;;;;;;;;;;16.70;99.90;;;;;;8396204;28;19924;-80
2022/10/24 02:45:24;;;;;;;;;;;16.70;99.90;;;;;;8378859;28;20019;-80
2022/10/24 02:49:26;;;;;;;;;;;16.50;99.90;;;;;;8377814;28;20010;-80
2022/10/24 02:53:28;;;;;;;;;;;16.60;99.90;;;;;;8395582;28;20030;-80
2022/10/24 02:57:29;;;;;;;;;;;16.50;99.90;;;;;;8396310;28;20056;-80
2022/10/24 03:01:31;;;;;;;;;;;16.50;99.90;;;;;;8379359;28;20275;-80
2022/10/24 03:05:33;;;;;;;;;;;16.50;99.90;;;;;;8402040;28;19931;-80
2022/10/24 03:09:35;;;;;;;;;;;16.50;99.90;;;;;;8383972;28;19960;-79
2022/10/24 03:13:37;;;;;;;;;;;16.50;99.90;;;;;;8383357;28;19963;-80
2022/10/24 03:17:38;;;;;;;;;;;16.50;99.90;;;;;;8401864;28;20070;-79
2022/10/24 03:21:41;;;;;;;;;;;16.50;99.90;;;;;;8383152;28;19935;-80
2022/10/24 03:25:42;;;;;;;;;;;16.50;99.90;;;;;;8383718;28;20110;-79
2022/10/24 03:29:44;;;;;;;;;;;16.50;99.90;;;;;;8400936;28;20015;-80
2022/10/24 03:33:45;;;;;;;;;;;16.50;99.90;;;;;;8400759;28;20027;-80
2022/10/24 03:37:47;;;;;;;;;;;16.50;99.90;;;;;;8399917;28;19972;-80
2022/10/24 03:41:49;;;;;;;;;;;16.40;99.90;;;;;;8399362;28;19972;-79
2022/10/24 03:45:50;;;;;;;;;;;16.40;99.90;;;;;;8381308;28;19928;-80
2022/10/24 03:49:52;;;;;;;;;;;16.50;99.90;;;;;;8399192;28;19971;-80
2022/10/24 03:53:53;;;;;;;;;;;16.60;99.90;;;;;;8380393;28;20022;-80
2022/10/24 03:57:55;;;;;;;;;;;16.60;99.90;;;;;;8387518;28;20375;-80
2022/10/24 04:01:59;;;;;;;;;;;16.50;99.90;;;;;;8399381;28;19963;-79
2022/10/24 04:06:01;;;;;;;;;;;16.60;99.90;;;;;;8399100;28;20399;-79
2022/10/24 04:10:04;;;;;;;;;;;16.60;99.90;;;;;;8398969;28;19934;-79
2022/10/24 04:14:06;;;;;;;;;;;16.60;99.90;;;;;;8381642;28;19963;-79
2022/10/24 04:18:08;;;;;;;;;;;16.60;99.90;;;;;;8398301;28;19924;-80
2022/10/24 04:22:10;;;;;;;;;;;16.60;99.90;;;;;;8399503;28;20022;-80
2022/10/24 04:26:13;;;;;;;;;;;16.50;99.90;;;;;;8398026;28;19931;-80
2022/10/24 04:30:15;;;;;;;;;;;16.50;99.90;;;;;;8397667;28;20015;-79
2022/10/24 04:34:17;;;;;;;;;;;16.60;99.90;;;;;;8398135;28;19925;-80
2022/10/24 04:38:19;;;;;;;;;;;16.60;99.90;;;;;;8399490;28;20031;-80
2022/10/24 04:42:21;;;;;;;;;;;16.60;99.90;;;;;;8398491;28;20026;-80
2022/10/24 04:46:22;;;;;;;;;;;16.60;99.90;;;;;;8397675;28;19928;-79
2022/10/24 04:50:24;;;;;;;;;;;16.60;99.90;;;;;;8380170;28;19967;-80
2022/10/24 04:54:26;;;;;;;;;;;16.60;99.90;;;;;;8393302;28;19928;-79
2022/10/24 04:58:27;;;;;;;;;;;16.60;99.90;;;;;;8379983;28;19928;-80
2022/10/24 05:02:29;;;;;;;;;;;16.70;99.90;;;;;;8398036;28;19929;-79
2022/10/24 05:06:31;;;;;;;;;;;16.60;99.90;;;;;;8396211;28;19967;-78
2022/10/24 05:10:32;;;;;;;;;;;16.60;99.90;;;;;;8379235;28;20031;-79
2022/10/24 05:14:34;;;;;;;;;;;16.70;99.90;;;;;;8396776;28;20342;-79
2022/10/24 05:18:35;;;;;;;;;;;16.60;99.90;;;;;;8394976;28;19986;-79
2022/10/24 05:22:37;;;;;;;;;;;16.60;99.90;;;;;;8396027;28;19947;-77
2022/10/24 05:26:39;;;;;;;;;;;16.60;99.90;;;;;;8395478;28;19975;-79
2022/10/24 05:30:43;;;;;;;;;;;16.70;99.90;;;;;;8395035;28;20478;-79
2022/10/24 05:34:45;;;;;;;;;;;16.70;99.90;;;;;;8395274;28;19967;-79
2022/10/24 05:38:47;;;;;;;;;;;16.70;99.90;;;;;;8395506;28;19931;-78
2022/10/24 05:42:49;;;;;;;;;;;16.70;99.90;;;;;;8395564;28;20328;-79
2022/10/24 05:46:51;;;;;;;;;;;16.70;99.90;;;;;;8377720;28;20019;-79
2022/10/24 05:50:57;;;;;;;;;;;16.70;99.90;;;;;;8394604;28;19936;-79
2022/10/24 05:54:58;;;;;;;;;;;16.70;99.90;;;;;;8389846;28;20295;-79
2022/10/24 05:59:08;;;;;;;;;;;16.70;99.90;;;;;;8394223;28;20330;-79
2022/10/24 06:03:10;;;;;;;;;;;16.60;99.90;;;;;;8377716;28;19955;-79
2022/10/24 06:07:11;;;;;;;;;;;16.60;99.90;;;;;;8395421;28;19983;-79
2022/10/24 06:11:13;;;;;;;;;;;16.60;99.90;;;;;;8395361;28;20366;-79
2022/10/24 06:15:15;;;;;;;;;;;16.50;99.90;;;;;;8377433;28;20038;-79
2022/10/24 06:19:17;;;;;;;;;;;16.50;99.90;;;;;;8394998;28;20041;-79
2022/10/24 06:23:19;;;;;;;;;;;16.50;99.90;;;;;;8394909;28;19976;-79
2022/10/24 06:27:21;;;;;;;;;;;16.60;99.90;;;;;;8395749;28;20064;-79
2022/10/24 06:31:24;;;;;;;;;;;16.50;99.90;;;;;;8394295;28;20004;-80
2022/10/24 06:35:26;;;;;;;;;;;16.60;99.90;;;;;;8377031;28;20043;-78
2022/10/24 06:39:27;;;;;;;;;;;16.60;99.90;;;;;;8382889;28;20298;-79
2022/10/24 06:43:29;;;;;;;;;;;16.70;99.90;;;;;;8384642;28;20011;-78
2022/10/24 06:47:31;;;;;;;;;;;16.70;99.90;;;;;;8400476;28;19946;-79
2022/10/24 06:51:32;;;;;;;;;;;16.80;99.90;;;;;;8400099;28;19935;-79
2022/10/24 06:55:36;;;;;;;;;;;16.70;99.90;;;;;;8409079;28;20018;-79
2022/10/24 06:59:38;;;;;;;;;;;16.70;99.90;;;;;;8400352;28;19930;-80
2022/10/24 07:03:40;;;;;;;;;;;16.70;99.90;;;;;;8400044;28;20396;-80
2022/10/24 07:07:42;;;;;;;;;;;16.70;99.90;;;;;;8400063;28;19972;-80
2022/10/24 07:11:44;;;;;;;;;;;16.70;99.90;;;;;;8400291;28;19931;-79
2022/10/24 07:15:46;;;;;;;;;;;16.70;99.90;;;;;;8400429;28;19931;-81
2022/10/24 07:19:54;;;;;;;;;;;16.70;99.90;;;;;;8399778;28;19928;-80
2022/10/24 07:23:56;;;;;;;;;;;16.70;99.90;;;;;;8393615;28;20011;-80
2022/10/24 07:27:57;;;;;;;;;;;16.70;99.90;;;;;;8392494;28;20011;-79
2022/10/24 07:32:00;;;;;;;;;;;16.70;99.90;;;;;;8399382;28;19947;-79
2022/10/24 07:36:02;;;;;;;;;;;16.70;99.90;;;;;;8414890;28;20379;-79
2022/10/24 07:40:04;;;;;;;;;;;16.70;99.90;;;;;;8398211;28;19924;-80
2022/10/24 07:44:06;;;;;;;;;;;16.70;99.90;;;;;;8398749;28;20400;-79
2022/10/24 07:48:08;;;;;;;;;;;16.70;99.90;;;;;;8398890;28;19929;-79
2022/10/24 07:52:09;;;;;;;;;;;16.80;99.90;;;;;;8381123;28;20380;-79
2022/10/24 07:56:15;;;;;;;;;;;16.80;99.90;;;;;;8396296;28;19928;-79
2022/10/24 08:00:17;;;;;;;;;;;16.90;99.90;;;;;;8397982;28;19925;-80
2022/10/24 08:04:18;;;;;;;;;;;17.00;99.90;;;;;;8398497;28;20015;-79
2022/10/24 08:08:20;;;;;;;;;;;16.90;99.90;;;;;;8397077;28;20023;-79
2022/10/24 08:12:37;;;;;;;;;;;16.90;99.90;;;;;;8377990;28;19999;-80
2022/10/24 08:16:40;;;;;;;;;;;16.90;99.90;;;;;;8398937;28;20023;-80
2022/10/24 08:20:42;;;;;;;;;;;16.90;99.90;;;;;;8380009;28;19936;-79
2022/10/24 08:24:44;;;;;;;;;;;16.80;99.90;;;;;;8397709;28;20027;-79
2022/10/24 08:28:46;;;;;;;;;;;16.80;99.90;;;;;;8397729;28;20027;-79
2022/10/24 08:32:48;;;;;;;;;;;16.80;99.90;;;;;;8397832;28;20456;-79
2022/10/24 08:36:50;;;;;;;;;;;16.80;99.90;;;;;;8396759;28;20434;-81
2022/10/24 08:40:51;;;;;;;;;;;16.80;99.90;;;;;;8396437;28;19935;-79
2022/10/24 08:44:53;;;;;;;;;;;16.80;99.90;;;;;;8396505;28;19946;-80
2022/10/24 08:48:57;;;;;;;;;;;16.80;99.90;;;;;;8379024;28;20015;-79
2022/10/24 08:53:04;;;;;;;;;;;16.90;99.90;;;;;;8395890;28;20006;-79
2022/10/24 08:57:14;;;;;;;;;;;16.90;99.90;;;;;;8372665;28;20003;-79
2022/10/24 09:01:20;;;;;;;;;;;17.00;99.90;;;;;;8396079;28;19972;-80
2022/10/24 09:05:24;;;;;;;;;;;17.00;99.90;;;;;;8378835;28;19929;-80
2022/10/24 09:09:33;;;;;;;;;;;17.00;99.90;;;;;;8394738;28;19990;-79
2022/10/24 09:13:36;;;;;;;;;;;17.00;99.90;;;;;;8397251;28;19928;-80
2022/10/24 09:17:41;;;;;;;;;;;17.10;99.90;;;;;;8377757;28;19929;-78
2022/10/24 09:21:43;;;;;;;;;;;17.10;99.90;;;;;;8396245;28;19950;-78
2022/10/24 09:25:49;;;;;;;;;;;17.10;99.90;;;;;;8395594;28;20374;-80
2022/10/24 09:29:51;;;;;;;;;;;17.20;99.90;;;;;;8395819;28;20397;-79
2022/10/24 09:33:53;;;;;;;;;;;17.20;99.90;;;;;;8395976;28;20031;-78
2022/10/24 09:37:56;;;;;;;;;;;17.20;99.90;;;;;;8394740;28;19928;-80
2022/10/24 09:41:59;;;;;;;;;;;17.20;99.90;;;;;;8378588;28;19963;-79
2022/10/24 09:46:00;;;;;;;;;;;17.20;99.90;;;;;;8377813;28;19925;-80
2022/10/24 09:50:02;;;;;;;;;;;17.10;99.90;;;;;;8377418;28;20035;-80
2022/10/24 09:54:06;;;;;;;;;;;17.00;99.90;;;;;;8386775;28;19925;-80
2022/10/24 09:58:16;;;;;;;;;;;16.70;99.90;;;;;;8390149;28;19925;-80
2022/10/24 10:02:18;;;;;;;;;;;16.60;99.90;;;;;;8396028;28;19963;-79
2022/10/24 10:06:20;;;;;;;;;;;16.50;99.90;;;;;;8385289;28;19924;-79
2022/10/24 10:10:26;;;;;;;;;;;16.60;99.90;;;;;;8395012;28;19955;-80
2022/10/24 10:14:28;;;;;;;;;;;16.60;99.90;;;;;;8393690;28;19976;-78
2022/10/24 10:18:41;;;;;;;;;;;16.70;99.90;;;;;;8396038;28;19924;-78
2022/10/24 10:22:42;;;;;;;;;;;16.80;99.90;;;;;;8373732;28;20267;-80
2022/10/24 10:26:45;;;;;;;;;;;17.00;99.90;;;;;;8398326;28;20010;-79
2022/10/24 10:30:47;;;;;;;;;;;17.50;99.90;;;;;;8386132;28;20016;-79
2022/10/24 10:34:55;;;;;;;;;;;17.50;99.90;;;;;;8397354;28;19925;-79
2022/10/24 10:39:00;;;;;;;;;;;17.80;99.90;;;;;;8364704;28;19947;-79
2022/10/24 10:43:29;;;;;;;;;;;18.30;99.90;;;;;;8378528;28;20419;-79
2022/10/24 10:47:36;;;;;;;;;;;18.50;99.90;;;;;;8380997;28;19932;-78
2022/10/24 10:51:56;;;;;;;;;;;18.40;99.90;;;;;;8386904;28;19929;-79
2022/10/24 10:56:05;;;;;;;;;;;18.20;99.90;;;;;;8365023;28;19939;-79
2022/10/24 11:00:10;;;;;;;;;;;17.90;99.90;;;;;;8367208;28;20311;-79
2022/10/24 11:04:12;;;;;;;;;;;17.80;99.90;;;;;;8363150;28;19932;-80
2022/10/24 11:08:32;;;;;;;;;;;17.80;99.90;;;;;;8366394;28;20027;-80
2022/10/24 11:12:38;;;;;;;;;;;17.70;99.90;;;;;;8366862;28;20111;-79
2022/10/24 11:16:41;;;;;;;;;;;17.60;99.90;;;;;;8350203;28;19931;-80
2022/10/24 11:20:52;;;;;;;;;;;17.40;99.90;;;;;;8365278;28;20115;-79
2022/10/24 11:24:56;;;;;;;;;;;17.40;99.90;;;;;;8371140;28;19937;-80
2022/10/24 11:29:02;;;;;;;;;;;17.40;99.90;;;;;;8354123;28;20380;-79
2022/10/24 11:33:06;;;;;;;;;;;17.30;99.90;;;;;;8368575;28;19932;-80
2022/10/24 11:37:17;;;;;;;;;;;16.90;99.90;;;;;;8382998;28;19933;-80
2022/10/24 11:41:22;;;;;;;;;;;16.40;99.90;;;;;;8404653;28;19975;-80
2022/10/24 11:45:43;;;;;;;;;;;16.20;99.90;;;;;;8386706;28;20043;-80
2022/10/24 11:49:47;;;;;;;;;;;16.30;99.90;;;;;;8384879;28;19928;-81
2022/10/24 11:53:55;;;;;;;;;;;16.40;99.90;;;;;;8375407;28;19991;-80
2022/10/24 11:57:58;;;;;;;;;;;16.50;99.90;;;;;;8376696;28;19953;-80
2022/10/24 12:01:59;;;;;;;;;;;16.60;99.90;;;;;;8361728;28;19963;-80
2022/10/24 12:06:01;;;;;;;;;;;16.70;99.90;;;;;;8382435;28;19964;-79
2022/10/24 12:10:09;;;;;;;;;;;16.70;99.90;;;;;;8359362;28;19931;-80
2022/10/24 12:14:15;;;;;;;;;;;16.70;99.90;;;;;;8386726;28;19925;-80
2022/10/24 12:18:23;;;;;;;;;;;16.60;99.90;;;;;;8387346;28;20245;-80
2022/10/24 12:22:29;;;;;;;;;;;16.40;99.90;;;;;;8380277;28;19928;-79
2022/10/24 12:26:31;;;;;;;;;;;16.50;99.90;;;;;;8388226;28;19955;-80
2022/10/24 12:30:34;;;;;;;;;;;16.70;99.90;;;;;;8373707;28;20035;-80
2022/10/24 12:34:41;;;;;;;;;;;16.70;99.90;;;;;;8370968;28;20210;-79
2022/10/24 12:38:55;;;;;;;;;;;16.80;99.90;;;;;;8369898;28;20027;-80
2022/10/24 12:42:57;;;;;;;;;;;16.80;99.90;;;;;;8382013;28;19931;-78
2022/10/24 12:46:59;;;;;;;;;;;16.80;99.90;;;;;;8383887;28;20437;-82
2022/10/24 12:51:02;;;;;;;;;;;16.80;99.90;;;;;;8373837;28;19924;-79
2022/10/24 12:55:24;;;;;;;;;;;16.80;99.90;;;;;;8352339;28;19928;-79
2022/10/24 12:59:28;;;;;;;;;;;16.70;99.90;;;;;;8372764;28;19961;-79
2022/10/24 13:04:02;;;;;;;;;;;16.50;99.90;;;;;;8374603;28;19925;-79
2022/10/24 13:08:13;;;;;;;;;;;16.30;99.90;;;;;;8340623;28;20372;-80
2022/10/24 13:12:15;;;;;;;;;;;16.30;99.90;;;;;;8375119;28;19928;-79
2022/10/24 13:16:35;;;;;;;;;;;16.10;99.90;;;;;;8368053;28;19929;-79
2022/10/24 13:20:42;;;;;;;;;;;15.80;99.90;;;;;;8374490;28;19933;-79
2022/10/24 13:24:45;;;;;;;;;;;15.50;99.90;;;;;;8351036;28;19963;-80
2022/10/24 13:28:47;;;;;;;;;;;15.40;99.90;;;;;;8376451;28;19925;-79
2022/10/24 13:32:48;;;;;;;;;;;15.50;99.90;;;;;;8374291;28;19933;-79
2022/10/24 13:36:56;;;;;;;;;;;15.60;99.90;;;;;;8389527;28;19928;-79
2022/10/24 13:40:58;;;;;;;;;;;15.70;99.90;;;;;;8352048;28;20375;-80
2022/10/24 13:45:20;;;;;;;;;;;15.90;99.90;;;;;;8355689;28;19925;-80
2022/10/24 13:49:24;;;;;;;;;;;16.00;99.90;;;;;;8360172;28;20565;-80
2022/10/24 13:53:28;;;;;;;;;;;16.10;99.90;;;;;;8350418;28;19925;-79
2022/10/24 13:57:34;;;;;;;;;;;16.10;99.90;;;;;;8366901;28;19939;-79
2022/10/24 14:01:39;;;;;;;;;;;15.80;99.90;;;;;;8370613;28;19955;-80
2022/10/24 14:05:45;;;;;;;;;;;15.70;99.90;;;;;;8371037;28;19925;-80
2022/10/24 14:09:53;;;;;;;;;;;15.60;99.90;;;;;;8360911;28;19932;-79
2022/10/24 14:14:01;;;;;;;;;;;15.70;99.90;;;;;;8381295;28;19975;-80
2022/10/24 14:18:13;;;;;;;;;;;15.90;99.90;;;;;;8354720;28;19956;-79
2022/10/24 14:22:19;;;;;;;;;;;16.10;99.90;;;;;;8371494;28;19935;-79
2022/10/24 14:26:21;;;;;;;;;;;16.20;99.90;;;;;;8372259;28;19924;-79
2022/10/24 14:30:24;;;;;;;;;;;16.20;99.90;;;;;;8374059;28;19931;-80
2022/10/24 14:34:27;;;;;;;;;;;16.30;99.90;;;;;;8374180;28;20272;-80
2022/10/24 14:38:33;;;;;;;;;;;16.40;99.90;;;;;;8392718;28;19929;-79
2022/10/24 14:42:37;;;;;;;;;;;16.90;99.90;;;;;;8369547;28;19936;-79
2022/10/24 14:46:40;;;;;;;;;;;17.40;99.90;;;;;;8372690;28;20303;-79
2022/10/24 14:50:44;;;;;;;;;;;17.50;99.90;;;;;;8369378;28;19939;-79
2022/10/24 14:54:53;;;;;;;;;;;17.40;99.90;;;;;;8375134;28;19939;-79
2022/10/24 14:58:56;;;;;;;;;;;17.20;99.90;;;;;;8368482;28;19998;-80
2022/10/24 15:03:00;;;;;;;;;;;17.00;99.90;;;;;;8380535;28;20611;-78
2022/10/24 15:07:20;;;;;;;;;;;16.90;99.90;;;;;;8375621;28;20015;-80
2022/10/24 15:11:26;;;;;;;;;;;16.70;99.90;;;;;;8375418;28;20389;-80
2022/10/24 15:15:28;;;;;;;;;;;16.70;99.90;;;;;;8383232;28;20011;-80
2022/10/24 15:19:37;;;;;;;;;;;16.60;99.90;;;;;;8378943;28;20398;-80
2022/10/24 15:23:46;;;;;;;;;;;16.80;99.90;;;;;;8391477;28;20006;-80
2022/10/24 15:27:47;;;;;;;;;;;16.80;99.90;;;;;;8387380;28;20012;-78
2022/10/24 15:31:50;;;;;;;;;;;16.70;99.90;;;;;;8382793;28;20392;-80
2022/10/24 15:35:52;;;;;;;;;;;16.90;99.90;;;;;;8382426;28;19960;-80
2022/10/24 15:39:54;;;;;;;;;;;17.10;99.90;;;;;;8383509;28;20423;-80
2022/10/24 15:43:56;;;;;;;;;;;17.10;99.90;;;;;;8401767;28;20348;-80
2022/10/24 15:47:58;;;;;;;;;;;17.10;99.90;;;;;;8387542;28;19972;-79
2022/10/24 15:51:59;;;;;;;;;;;16.90;99.90;;;;;;8380057;28;20019;-80
2022/10/24 15:56:01;;;;;;;;;;;16.70;99.90;;;;;;8389626;28;20439;-80
2022/10/24 16:00:03;;;;;;;;;;;16.50;99.90;;;;;;8374202;28;19924;-80
2022/10/24 16:04:06;;;;;;;;;;;16.40;99.90;;;;;;8395524;28;20811;-79
2022/10/24 16:08:10;;;;;;;;;;;16.30;99.90;;;;;;8372127;28;19967;-79
2022/10/24 16:12:12;;;;;;;;;;;16.20;99.90;;;;;;8372941;28;20385;-79
2022/10/24 16:16:14;;;;;;;;;;;16.10;99.90;;;;;;8365343;28;20014;-80
2022/10/24 16:20:15;;;;;;;;;;;16.10;99.90;;;;;;8386249;28;20494;-79
2022/10/24 16:24:17;;;;;;;;;;;16.10;99.90;;;;;;8381866;28;19970;-79
2022/10/24 16:28:19;;;;;;;;;;;16.00;99.90;;;;;;8384872;28;19947;-80
2022/10/24 16:32:24;;;;;;;;;;;15.90;99.90;;;;;;8377342;28;20449;-79
2022/10/24 16:36:26;;;;;;;;;;;15.80;99.90;;;;;;8355466;28;19931;-79
2022/10/24 16:40:28;;;;;;;;;;;15.80;99.90;;;;;;8373202;28;19924;-79
2022/10/24 16:44:32;;;;;;;;;;;15.70;99.90;;;;;;8369784;28;19924;-79
2022/10/24 16:48:33;;;;;;;;;;;15.50;99.90;;;;;;8363016;28;19986;-79
2022/10/24 16:52:35;;;;;;;;;;;15.50;99.90;;;;;;8373518;28;19947;-80
2022/10/24 16:56:36;;;;;;;;;;;15.40;99.90;;;;;;8371263;28;20413;-79
2022/10/24 17:00:38;;;;;;;;;;;15.30;99.90;;;;;;8379077;28;19931;-79
2022/10/24 17:04:41;;;;;;;;;;;15.30;99.90;;;;;;8365715;28;19929;-79
2022/10/24 17:08:43;;;;;;;;;;;15.20;99.90;;;;;;8388246;28;20261;-80
2022/10/24 17:12:46;;;;;;;;;;;15.20;99.90;;;;;;8387971;28;19972;-79
2022/10/24 17:16:47;;;;;;;;;;;15.20;99.90;;;;;;8373168;28;20086;-80
2022/10/24 17:20:49;;;;;;;;;;;15.20;99.90;;;;;;8379546;28;20283;-80
2022/10/24 17:24:51;;;;;;;;;;;15.10;99.90;;;;;;8366034;28;20023;-80
2022/10/24 17:28:52;;;;;;;;;;;15.10;99.90;;;;;;8375258;28;20007;-80
2022/10/24 17:32:54;;;;;;;;;;;15.00;99.90;;;;;;8388066;28;19930;-80
2022/10/24 17:37:05;;;;;;;;;;;15.00;99.90;;;;;;8372305;28;19931;-80
2022/10/24 17:41:10;;;;;;;;;;;15.00;99.90;;;;;;8387566;28;19929;-79
2022/10/24 17:45:16;;;;;;;;;;;14.90;99.90;;;;;;8393158;28;19946;-80
2022/10/24 17:49:18;;;;;;;;;;;14.90;99.90;;;;;;8374166;28;20006;-80
2022/10/24 17:53:22;;;;;;;;;;;14.90;99.90;;;;;;8372107;28;19964;-80
2022/10/24 17:57:23;;;;;;;;;;;14.90;99.90;;;;;;8396151;28;19924;-80
2022/10/24 18:01:25;;;;;;;;;;;14.90;99.90;;;;;;8366795;28;20334;-79
2022/10/24 18:05:27;;;;;;;;;;;14.90;99.90;;;;;;8369553;28;19928;-80
2022/10/24 18:09:29;;;;;;;;;;;15.00;99.90;;;;;;8384697;28;19975;-80
2022/10/24 18:13:33;;;;;;;;;;;15.00;99.90;;;;;;8364293;28;19964;-80
2022/10/24 18:17:35;;;;;;;;;;;15.00;99.90;;;;;;8379825;28;20399;-82
2022/10/24 18:21:37;;;;;;;;;;;15.00;99.90;;;;;;8387124;28;20419;-82
2022/10/24 18:25:38;;;;;;;;;;;15.00;99.90;;;;;;8359459;28;19928;-81
2022/10/24 18:29:40;;;;;;;;;;;15.00;99.90;;;;;;8378295;28;19929;-81
2022/10/24 18:33:47;;;;;;;;;;;15.00;99.90;;;;;;8397805;28;20019;-82
2022/10/24 18:37:49;;;;;;;;;;;15.00;99.90;;;;;;8384017;28;19931;-81
2022/10/24 18:42:00;;;;;;;;;;;15.00;99.90;;;;;;8404274;28;20865;-81
2022/10/24 18:46:02;;;;;;;;;;;15.00;99.90;;;;;;8387495;28;19928;-82
2022/10/24 18:50:04;;;;;;;;;;;14.90;99.90;;;;;;8365986;28;19925;-81
2022/10/24 18:54:08;;;;;;;;;;;14.90;99.90;;;;;;8383359;28;19925;-81
2022/10/24 18:58:11;;;;;;;;;;;14.90;99.90;;;;;;8380704;28;19970;-81
2022/10/24 19:02:13;;;;;;;;;;;14.90;99.90;;;;;;8370927;28;20343;-80
2022/10/24 19:06:20;;;;;;;;;;;14.90;99.90;;;;;;8373589;28;24495;-81
2022/10/24 19:10:25;;;;;;;;;;;14.90;99.90;;;;;;8368272;28;20393;-80
2022/10/24 19:14:27;;;;;;;;;;;14.90;99.90;;;;;;8380242;28;19974;-81
2022/10/24 19:18:31;;;;;;;;;;;14.90;99.90;;;;;;8371278;28;19938;-81
2022/10/24 19:22:33;;;;;;;;;;;14.90;99.90;;;;;;8373286;28;19928;-81
2022/10/24 19:31:38;;;;;;;;;;;14.80;99.90;;;;;;8346183;28;19975;-82
2022/10/24 19:50:49;;;;;;;;;;;14.60;99.90;;;;;;8367701;28;20399;-81
2022/10/24 19:54:50;;;;;;;;;;;14.60;99.90;;;;;;8376837;28;20083;-81
2022/10/24 19:58:53;;;;;;;;;;;14.50;99.90;;;;;;8375218;28;19924;-81
2022/10/24 20:02:54;;;;;;;;;;;14.40;99.90;;;;;;8374322;28;20350;-81
2022/10/24 20:06:56;;;;;;;;;;;14.40;99.90;;;;;;8365925;28;19933;-81
2022/10/24 20:10:58;;;;;;;;;;;14.30;99.90;;;;;;8370028;28;20387;-80
2022/10/24 20:14:59;;;;;;;;;;;14.30;99.90;;;;;;8372822;28;19945;-81
2022/10/24 20:19:02;;;;;;;;;;;14.20;99.90;;;;;;8371083;28;19932;-81
2022/10/24 20:23:04;;;;;;;;;;;14.20;99.90;;;;;;8374126;28;19936;-81
2022/10/24 20:27:05;;;;;;;;;;;14.20;99.90;;;;;;8377667;28;19946;-81
2022/10/24 20:31:07;;;;;;;;;;;14.20;99.90;;;;;;8362199;28;19924;-81
2022/10/24 20:35:09;;;;;;;;;;;14.10;99.90;;;;;;8365439;28;20364;-82
2022/10/24 20:39:12;;;;;;;;;;;14.10;99.90;;;;;;8369005;28;19979;-81
2022/10/24 20:43:15;;;;;;;;;;;14.10;99.90;;;;;;8383614;28;19971;-81
2022/10/24 20:47:16;;;;;;;;;;;14.10;99.90;;;;;;8382411;28;19925;-81
2022/10/24 20:51:18;;;;;;;;;;;14.10;99.90;;;;;;8391025;28;20011;-81
2022/10/24 20:55:20;;;;;;;;;;;14.10;99.90;;;;;;8373955;28;19980;-81
2022/10/24 21:04:56;;;;;;;;;;;14.20;99.90;;;;;;8392729;28;19923;-81
2022/10/24 21:08:58;;;;;;;;;;;14.10;99.90;;;;;;8397815;28;20439;-81
2022/10/24 21:13:00;;;;;;;;;;;14.10;99.90;;;;;;8390202;28;19924;-82
2022/10/24 21:17:02;;;;;;;;;;;14.10;99.90;;;;;;8385347;28;20286;-81
2022/10/24 21:21:04;;;;;;;;;;;14.10;99.90;;;;;;8378991;28;20023;-81
2022/10/24 21:25:06;;;;;;;;;;;14.00;99.90;;;;;;8394806;28;19925;-81
2022/10/24 21:29:08;;;;;;;;;;;14.00;99.90;;;;;;8379959;28;20348;-82
2022/10/24 21:33:30;;;;;;;;;;;13.90;99.90;;;;;;8367924;28;19970;-82
2022/10/24 21:37:32;;;;;;;;;;;13.90;99.90;;;;;;8394725;28;20004;-81
2022/10/24 21:41:33;;;;;;;;;;;13.90;99.90;;;;;;8364749;28;19958;-81
2022/10/24 21:45:35;;;;;;;;;;;13.90;99.90;;;;;;8358106;28;20375;-81
2022/10/24 21:49:36;;;;;;;;;;;13.80;99.90;;;;;;8359266;28;19928;-81
2022/10/24 21:53:42;;;;;;;;;;;13.80;99.90;;;;;;8352180;28;19928;-81
2022/10/24 21:57:44;;;;;;;;;;;13.70;99.90;;;;;;8353272;28;19987;-81
2022/10/24 22:01:46;;;;;;;;;;;13.70;99.90;;;;;;8352217;28;20375;-82
2022/10/24 22:05:52;;;;;;;;;;;13.70;99.90;;;;;;8351173;28;19928;-81
2022/10/24 22:09:53;;;;;;;;;;;13.70;99.90;;;;;;8346339;28;20078;-81
2022/10/24 22:13:56;;;;;;;;;;;13.60;99.90;;;;;;8355561;28;19925;-82
2022/10/24 22:17:57;;;;;;;;;;;13.60;99.90;;;;;;8344668;28;20011;-80
2022/10/24 22:21:59;;;;;;;;;;;13.60;99.90;;;;;;8357548;28;20011;-81
2022/10/24 22:26:00;;;;;;;;;;;13.60;99.90;;;;;;8353285;28;19925;-81
2022/10/24 22:30:02;;;;;;;;;;;13.60;99.90;;;;;;8345956;28;20447;-81
2022/10/24 22:34:04;;;;;;;;;;;13.60;99.90;;;;;;8387500;28;19968;-81
2022/10/24 22:38:07;;;;;;;;;;;13.60;99.90;;;;;;8387990;28;19944;-81
2022/10/24 22:42:09;;;;;;;;;;;13.60;99.90;;;;;;8383656;28;20344;-81
2022/10/24 22:56:25;;;;;;;;;;;13.70;99.90;;;;;;8381206;28;20397;-82
2022/10/24 23:00:27;;;;;;;;;;;13.70;99.90;;;;;;8381936;28;20018;-82
2022/10/24 23:04:32;;;;;;;;;;;13.70;99.90;;;;;;8357031;28;19947;-82
2022/10/24 23:08:37;;;;;;;;;;;13.70;99.90;;;;;;8365040;28;20022;-82
2022/10/24 23:12:39;;;;;;;;;;;13.70;99.90;;;;;;8383106;28;19939;-82
2022/10/24 23:16:51;;;;;;;;;;;13.80;99.90;;;;;;8374526;28;20043;-82
2022/10/24 23:21:07;;;;;;;;;;;13.80;99.90;;;;;;8374620;28;19961;-81
2022/10/24 23:25:09;;;;;;;;;;;13.90;99.90;;;;;;8379098;28;19928;-82
2022/10/24 23:29:25;;;;;;;;;;;13.90;99.90;;;;;;8381305;28;19964;-82
2022/10/24 23:33:28;;;;;;;;;;;13.90;99.90;;;;;;8378640;28;19968;-82
2022/10/24 23:37:30;;;;;;;;;;;14.00;99.90;;;;;;8408071;28;19929;-82
2022/10/24 23:41:32;;;;;;;;;;;14.00;99.90;;;;;;8379330;28;19924;-81
2022/10/24 23:45:47;;;;;;;;;;;14.00;99.90;;;;;;8389150;28;19925;-82
2022/10/24 23:50:15;;;;;;;;;;;14.00;99.90;;;;;;8378839;28;19925;-81
2022/10/24 23:54:22;;;;;;;;;;;14.00;99.90;;;;;;8339195;28;19979;-81
2022/10/24 23:58:24;;;;;;;;;;;14.00;99.90;;;;;;8379462;28;19924;-82
